createdAt,value
2017-07-08T00:00:15.265Z,86.5
2017-07-08T00:00:45.707Z,86.5
2017-07-08T00:01:15.963Z,86.4
2017-07-08T00:01:46.221Z,86.4
2017-07-08T00:02:16.588Z,86.5
2017-07-08T00:03:13.851Z,86.7
2017-07-08T00:04:13.065Z,86.7
2017-07-08T00:05:11.886Z,86.8
2017-07-08T00:06:11.578Z,87.1
2017-07-08T00:07:11.154Z,87.5
2017-07-08T00:08:10.332Z,87.6
2017-07-08T00:09:09.652Z,87.4
2017-07-08T00:10:09.104Z,87.8
2017-07-08T00:11:08.736Z,87.6
2017-07-08T00:12:07.797Z,87.5
2017-07-08T00:13:07.122Z,87.6
2017-07-08T00:14:06.813Z,87.7
2017-07-08T00:15:06.007Z,87.7
2017-07-08T00:16:05.319Z,88.1
2017-07-08T00:17:04.519Z,88.2
2017-07-08T00:18:03.964Z,88.6
2017-07-08T00:19:03.289Z,88.5
2017-07-08T00:19:33.786Z,88.5
2017-07-08T00:20:04.287Z,88.4
2017-07-08T00:20:34.790Z,88.4
2017-07-08T00:22:01.797Z,88.1
2017-07-08T00:23:00.992Z,88.7
2017-07-08T00:24:00.060Z,88.6
2017-07-08T00:24:59.591Z,88.6
2017-07-08T00:25:59.282Z,88.6
2017-07-08T00:26:58.599Z,88.5
2017-07-08T00:27:57.921Z,88.8
2017-07-08T00:28:57.504Z,88.8
2017-07-08T00:29:56.443Z,89
2017-07-08T00:30:56.270Z,89
2017-07-08T00:31:55.331Z,89.1
2017-07-08T00:32:54.776Z,89.3
2017-07-08T00:33:54.381Z,89.2
2017-07-08T00:34:53.459Z,89.3
2017-07-08T00:35:53.170Z,89.2
2017-07-08T00:36:52.109Z,89.1
2017-07-08T00:37:51.565Z,89
2017-07-08T00:38:51.015Z,89.1
2017-07-08T00:39:50.577Z,89.2
2017-07-08T00:40:50.026Z,89
2017-07-08T00:41:49.095Z,89.4
2017-07-08T00:42:19.369Z,89.4
2017-07-08T00:42:50.003Z,89.7
2017-07-08T00:43:20.756Z,89.7
2017-07-08T00:44:47.381Z,89.6
2017-07-08T00:45:46.523Z,89.6
2017-07-08T00:46:45.845Z,89.6
2017-07-08T00:47:45.166Z,89.9
2017-07-08T00:48:44.742Z,90.2
2017-07-08T00:49:44.321Z,90.1
2017-07-08T00:50:43.640Z,90.3
2017-07-08T00:51:42.948Z,90.3
2017-07-08T00:52:42.177Z,90.3
2017-07-08T00:53:41.864Z,90.2
2017-07-08T00:54:40.810Z,90.1
2017-07-08T00:55:40.652Z,90.2
2017-07-08T00:56:39.853Z,90.1
2017-07-08T00:57:38.801Z,90
2017-07-08T00:58:38.490Z,89.8
2017-07-08T00:59:38.000Z,90
2017-07-08T01:00:37.060Z,90.1
2017-07-08T01:01:36.507Z,90
2017-07-08T01:02:36.065Z,89.9
2017-07-08T01:03:35.514Z,90.1
2017-07-08T01:04:34.586Z,90
2017-07-08T01:05:34.032Z,89.9
2017-07-08T01:06:33.488Z,89.9
2017-07-08T01:07:32.806Z,89.9
2017-07-08T01:08:31.999Z,89.8
2017-07-08T01:09:31.605Z,89.8
2017-07-08T01:10:31.485Z,89.7
2017-07-08T01:11:30.557Z,90
2017-07-08T01:13:29.011Z,89.9
2017-07-08T01:14:28.205Z,89.9
2017-07-08T01:15:28.029Z,89.6
2017-07-08T01:16:26.964Z,90
2017-07-08T01:17:26.279Z,90.5
2017-07-08T01:18:25.727Z,90.4
2017-07-08T01:19:25.863Z,91
2017-07-08T01:20:24.808Z,90.9
2017-07-08T01:21:23.804Z,90.9
2017-07-08T01:22:23.230Z,90.8
2017-07-08T01:23:22.549Z,90.6
2017-07-08T01:24:22.118Z,90.6
2017-07-08T01:25:21.707Z,90.8
2017-07-08T01:26:20.659Z,90.7
2017-07-08T01:27:20.055Z,91
2017-07-08T01:27:50.564Z,91
2017-07-08T01:28:21.192Z,91.1
2017-07-08T01:28:51.437Z,91.1
2017-07-08T01:30:18.312Z,91.4
2017-07-08T01:31:17.758Z,91.4
2017-07-08T01:32:17.201Z,91.5
2017-07-08T01:33:16.392Z,91.6
2017-07-08T01:34:15.642Z,91.6
2017-07-08T01:35:15.237Z,91.5
2017-07-08T01:36:14.557Z,91.6
2017-07-08T01:37:13.869Z,91.4
2017-07-08T01:38:13.064Z,91.4
2017-07-08T01:39:12.521Z,92.1
2017-07-08T01:40:12.213Z,92.1
2017-07-08T01:41:11.523Z,92
2017-07-08T01:42:10.474Z,92.2
2017-07-08T01:43:09.922Z,92.2
2017-07-08T01:44:09.622Z,92.6
2017-07-08T01:45:08.812Z,92.6
2017-07-08T01:46:08.257Z,92.7
2017-07-08T01:47:07.587Z,92.5
2017-07-08T01:48:07.157Z,92.9
2017-07-08T01:49:06.091Z,92.8
2017-07-08T01:50:05.782Z,92.9
2017-07-08T01:51:04.730Z,92.9
2017-07-08T01:52:04.298Z,92.9
2017-07-08T01:53:03.618Z,92.9
2017-07-08T01:54:02.929Z,92.9
2017-07-08T01:55:02.492Z,93
2017-07-08T01:56:01.677Z,92.8
2017-07-08T01:57:01.384Z,92.9
2017-07-08T01:58:00.701Z,93.1
2017-07-08T01:58:59.891Z,93.1
2017-07-08T01:59:59.202Z,93.2
2017-07-08T02:00:58.662Z,93.3
2017-07-08T02:01:57.987Z,93.4
2017-07-08T02:02:57.187Z,93.4
2017-07-08T02:03:56.635Z,93.5
2017-07-08T02:04:55.961Z,93.5
2017-07-08T02:05:55.545Z,93.6
2017-07-08T02:06:54.744Z,93.6
2017-07-08T02:07:54.066Z,93.6
2017-07-08T02:08:24.313Z,93.6
2017-07-08T02:08:54.810Z,93.6
2017-07-08T02:09:25.375Z,93.6
2017-07-08T02:09:56.453Z,93.8
2017-07-08T02:10:26.197Z,93.8
2017-07-08T02:11:51.564Z,93.6
2017-07-08T02:12:50.880Z,94
2017-07-08T02:13:50.582Z,94
2017-07-08T02:14:49.773Z,94
2017-07-08T02:15:48.838Z,93.8
2017-07-08T02:16:48.279Z,93.8
2017-07-08T02:17:47.474Z,94
2017-07-08T02:18:47.290Z,94.2
2017-07-08T02:19:46.475Z,94.1
2017-07-08T02:20:17.218Z,94.1
2017-07-08T02:20:47.710Z,94.2
2017-07-08T02:21:18.087Z,94.2
2017-07-08T02:21:48.584Z,94.2
2017-07-08T02:22:18.835Z,94.2
2017-07-08T02:24:43.465Z,94.4
2017-07-08T02:25:42.471Z,94.4
2017-07-08T02:26:41.924Z,94.5
2017-07-08T02:27:41.128Z,94.5
2017-07-08T02:28:40.446Z,94.4
2017-07-08T02:29:39.890Z,94.3
2017-07-08T02:30:39.081Z,94.4
2017-07-08T02:31:38.526Z,94.6
2017-07-08T02:32:38.093Z,94.5
2017-07-08T02:33:37.543Z,94.3
2017-07-08T02:34:36.860Z,94.4
2017-07-08T02:35:35.928Z,94.5
2017-07-08T02:36:35.522Z,94.7
2017-07-08T02:37:34.834Z,94.8
2017-07-08T02:38:34.165Z,94.7
2017-07-08T02:39:33.604Z,94.9
2017-07-08T02:40:32.804Z,94.9
2017-07-08T02:41:31.990Z,94.9
2017-07-08T02:42:31.578Z,94.9
2017-07-08T02:43:31.289Z,94.9
2017-07-08T02:44:30.238Z,94.8
2017-07-08T02:45:29.681Z,95.1
2017-07-08T02:46:29.004Z,95
2017-07-08T02:47:28.450Z,95.1
2017-07-08T02:48:27.906Z,95.2
2017-07-08T02:49:27.249Z,95.1
2017-07-08T02:50:26.314Z,95.2
2017-07-08T02:51:25.644Z,95
2017-07-08T02:52:24.956Z,95
2017-07-08T02:53:24.265Z,95.1
2017-07-08T02:54:23.960Z,95.2
2017-07-08T02:55:23.162Z,95
2017-07-08T02:56:22.392Z,95
2017-07-08T02:57:21.838Z,95.2
2017-07-08T02:59:20.801Z,95.2
2017-07-08T03:00:20.242Z,95.2
2017-07-08T03:01:19.312Z,95.2
2017-07-08T03:02:18.632Z,95.3
2017-07-08T03:02:48.894Z,95.3
2017-07-08T03:03:19.412Z,95.3
2017-07-08T03:04:17.222Z,95.3
2017-07-08T03:05:16.666Z,95.2
2017-07-08T03:06:15.856Z,95.2
2017-07-08T03:07:15.304Z,95.3
2017-07-08T03:08:15.015Z,95.5
2017-07-08T03:09:14.466Z,95.5
2017-07-08T03:10:13.429Z,95.6
2017-07-08T03:11:12.874Z,95.4
2017-07-08T03:12:12.199Z,95.5
2017-07-08T03:13:11.518Z,95.6
2017-07-08T03:14:10.696Z,95.8
2017-07-08T03:16:09.806Z,95.8
2017-07-08T03:17:08.934Z,95.9
2017-07-08T03:18:08.373Z,96
2017-07-08T03:19:07.965Z,96
2017-07-08T03:20:07.040Z,96.2
2017-07-08T03:21:06.113Z,96.1
2017-07-08T03:22:05.433Z,96.2
2017-07-08T03:23:05.373Z,96.2
2017-07-08T03:24:04.441Z,96.2
2017-07-08T03:25:03.887Z,96.2
2017-07-08T03:26:03.212Z,96.2
2017-07-08T03:27:02.659Z,96.2
2017-07-08T03:28:01.962Z,96.4
2017-07-08T03:29:01.171Z,96.5
2017-07-08T03:30:00.378Z,96.4
2017-07-08T03:30:59.827Z,96.3
2017-07-08T03:31:59.146Z,96.2
2017-07-08T03:32:58.599Z,96.1
2017-07-08T03:33:57.750Z,96.3
2017-07-08T03:34:57.251Z,96.2
2017-07-08T03:35:56.574Z,96.3
2017-07-08T03:36:56.267Z,96.3
2017-07-08T03:37:55.461Z,96.3
2017-07-08T03:38:54.713Z,96.1
2017-07-08T03:39:54.152Z,96.2
2017-07-08T03:40:53.350Z,96.2
2017-07-08T03:41:52.664Z,96.5
2017-07-08T03:42:51.975Z,96.5
2017-07-08T03:43:51.302Z,96.5
2017-07-08T03:44:50.877Z,96.3
2017-07-08T03:45:49.944Z,96.6
2017-07-08T03:46:49.264Z,96.4
2017-07-08T03:47:48.718Z,96.5
2017-07-08T03:48:48.030Z,96.6
2017-07-08T03:49:47.356Z,96.5
2017-07-08T03:50:47.059Z,96.5
2017-07-08T03:51:46.135Z,96.6
2017-07-08T03:52:45.583Z,96.5
2017-07-08T03:53:44.643Z,96.6
2017-07-08T03:54:44.215Z,96.6
2017-07-08T03:55:43.541Z,96.5
2017-07-08T03:56:42.867Z,96.5
2017-07-08T03:57:42.320Z,96.5
2017-07-08T03:58:41.761Z,96.3
2017-07-08T03:59:40.823Z,96.4
2017-07-08T04:00:40.267Z,96.7
2017-07-08T04:01:39.338Z,96.7
2017-07-08T04:02:39.033Z,96.5
2017-07-08T04:03:38.361Z,96.5
2017-07-08T04:04:37.808Z,96.6
2017-07-08T04:05:37.007Z,96.5
2017-07-08T04:06:36.078Z,96.2
2017-07-08T04:07:35.412Z,96.3
2017-07-08T04:08:34.982Z,96.3
2017-07-08T04:09:34.553Z,96.3
2017-07-08T04:10:33.873Z,96.2
2017-07-08T04:11:33.323Z,96.3
2017-07-08T04:12:32.387Z,96.2
2017-07-08T04:13:31.699Z,96.1
2017-07-08T04:14:31.268Z,96
2017-07-08T04:15:30.337Z,95.9
2017-07-08T04:16:29.912Z,95.9
2017-07-08T04:17:28.979Z,96
2017-07-08T04:18:28.686Z,95.8
2017-07-08T04:19:27.756Z,95.7
2017-07-08T04:20:27.287Z,95.6
2017-07-08T04:21:26.610Z,95.6
2017-07-08T04:22:25.680Z,95.6
2017-07-08T04:23:25.048Z,95.7
2017-07-08T04:24:24.621Z,95.6
2017-07-08T04:25:23.938Z,95.5
2017-07-08T04:27:22.762Z,95.5
2017-07-08T04:28:21.949Z,95.5
2017-07-08T04:29:21.150Z,95.3
2017-07-08T04:29:51.770Z,95.3
2017-07-08T04:31:19.854Z,95.1
2017-07-08T04:32:19.047Z,95.1
2017-07-08T04:33:18.751Z,95
2017-07-08T04:34:18.071Z,95.2
2017-07-08T04:35:17.586Z,95.1
2017-07-08T04:36:17.030Z,95
2017-07-08T04:37:16.110Z,95
2017-07-08T04:38:15.433Z,94.8
2017-07-08T04:39:14.868Z,94.9
2017-07-08T04:40:14.314Z,94.9
2017-07-08T04:41:13.382Z,94.8
2017-07-08T04:43:12.225Z,94.5
2017-07-08T04:44:11.679Z,94.7
2017-07-08T04:45:11.057Z,94.6
2017-07-08T04:46:10.262Z,94.6
2017-07-08T04:47:09.460Z,94.8
2017-07-08T04:48:09.024Z,94.7
2017-07-08T04:49:08.217Z,94.7
2017-07-08T04:50:07.671Z,94.6
2017-07-08T04:51:07.246Z,94.5
2017-07-08T04:52:06.308Z,94.6
2017-07-08T04:53:05.751Z,94.5
2017-07-08T04:54:04.951Z,94.5
2017-07-08T04:55:04.400Z,94.5
2017-07-08T04:56:03.843Z,94.4
2017-07-08T04:58:02.563Z,94.2
2017-07-08T04:59:01.645Z,94.1
2017-07-08T05:00:01.214Z,93.7
2017-07-08T05:01:00.545Z,93.6
2017-07-08T05:01:59.741Z,93.4
2017-07-08T05:02:58.933Z,93.5
2017-07-08T05:03:58.619Z,93.2
2017-07-08T05:04:57.809Z,93.3
2017-07-08T05:05:57.505Z,93.1
2017-07-08T05:06:56.696Z,92.8
2017-07-08T05:07:56.261Z,92.7
2017-07-08T05:08:55.186Z,92.7
2017-07-08T05:09:54.761Z,92.5
2017-07-08T05:10:54.214Z,92.5
2017-07-08T05:11:53.540Z,92.3
2017-07-08T05:12:52.610Z,92.3
2017-07-08T05:13:52.185Z,92.4
2017-07-08T05:14:51.766Z,92.4
2017-07-08T05:15:50.718Z,92.4
2017-07-08T05:16:50.291Z,92.3
2017-07-08T05:17:49.472Z,92.2
2017-07-08T05:18:48.798Z,92.1
2017-07-08T05:19:19.423Z,92.1
2017-07-08T05:19:49.912Z,92.1
2017-07-08T05:20:47.581Z,92.1
2017-07-08T05:21:46.913Z,92
2017-07-08T05:22:46.361Z,92.1
2017-07-08T05:23:45.549Z,92.1
2017-07-08T05:24:45.118Z,91.7
2017-07-08T05:25:44.178Z,91.8
2017-07-08T05:26:43.499Z,91.7
2017-07-08T05:27:42.939Z,91.8
2017-07-08T05:28:42.509Z,91.6
2017-07-08T05:29:41.820Z,91.5
2017-07-08T05:30:41.006Z,91.6
2017-07-08T05:31:40.454Z,91.5
2017-07-08T05:32:39.761Z,91.3
2017-07-08T05:33:39.339Z,91.3
2017-07-08T05:34:38.784Z,91.1
2017-07-08T05:35:37.912Z,91
2017-07-08T05:36:37.094Z,90.9
2017-07-08T05:37:37.056Z,90.8
2017-07-08T05:38:36.290Z,90.6
2017-07-08T05:39:35.337Z,90.7
2017-07-08T05:40:05.717Z,90.7
2017-07-08T05:40:36.189Z,90.7
2017-07-08T05:41:34.242Z,90.7
2017-07-08T05:42:33.564Z,90.2
2017-07-08T05:43:32.904Z,90.1
2017-07-08T05:44:32.597Z,89.7
2017-07-08T05:45:31.717Z,89.8
2017-07-08T05:46:30.919Z,89.6
2017-07-08T05:47:30.496Z,89.5
2017-07-08T05:48:29.560Z,89.6
2017-07-08T05:49:29.015Z,89.6
2017-07-08T05:50:28.471Z,89.4
2017-07-08T05:50:59.100Z,89.4
2017-07-08T05:51:29.736Z,89.3
2017-07-08T05:52:00.233Z,89.3
2017-07-08T05:53:26.477Z,88.9
2017-07-08T05:54:26.300Z,88.9
2017-07-08T05:55:25.124Z,88.9
2017-07-08T05:56:24.825Z,88.7
2017-07-08T05:57:24.144Z,88.5
2017-07-08T05:58:23.453Z,88.3
2017-07-08T05:59:22.772Z,88.3
2017-07-08T06:00:22.463Z,88
2017-07-08T06:01:21.820Z,88.1
2017-07-08T06:02:20.762Z,87.8
2017-07-08T06:03:20.453Z,87.8
2017-07-08T06:05:19.058Z,88
2017-07-08T06:06:18.393Z,87.8
2017-07-08T06:07:17.586Z,87.6
2017-07-08T06:08:17.157Z,87.5
2017-07-08T06:09:16.865Z,87.7
2017-07-08T06:10:16.330Z,87.6
2017-07-08T06:11:15.285Z,87.5
2017-07-08T06:12:14.734Z,87.5
2017-07-08T06:13:14.312Z,87.5
2017-07-08T06:14:13.383Z,87.5
2017-07-08T06:15:13.210Z,87.6
2017-07-08T06:17:11.918Z,87.4
2017-07-08T06:18:10.990Z,87.3
2017-07-08T06:19:10.559Z,87.2
2017-07-08T06:20:09.895Z,86.9
2017-07-08T06:22:08.483Z,86.3
2017-07-08T06:23:07.919Z,86.4
2017-07-08T06:24:07.488Z,86.5
2017-07-08T06:25:06.941Z,86.6
2017-07-08T06:26:06.261Z,86.5
2017-07-08T06:27:05.708Z,86.3
2017-07-08T06:28:05.154Z,86.1
2017-07-08T06:29:04.217Z,86.1
2017-07-08T06:30:03.783Z,86
2017-07-08T06:31:03.099Z,85.8
2017-07-08T06:32:02.278Z,85.6
2017-07-08T06:33:01.735Z,85.2
2017-07-08T06:34:01.182Z,85.1
2017-07-08T06:35:00.882Z,85.3
2017-07-08T06:36:59.460Z,85.3
2017-07-08T06:37:58.785Z,85.3
2017-07-08T06:38:58.110Z,85.3
2017-07-08T06:39:57.691Z,85.5
2017-07-08T06:40:57.014Z,85.4
2017-07-08T06:41:56.840Z,84.9
2017-07-08T06:42:55.660Z,85
2017-07-08T06:43:55.105Z,84.3
2017-07-08T06:44:55.055Z,84.2
2017-07-08T06:45:54.372Z,84.2
2017-07-08T06:46:53.307Z,83.5
2017-07-08T06:47:53.120Z,83.2
2017-07-08T06:48:52.190Z,83.5
2017-07-08T06:49:51.633Z,83.8
2017-07-08T06:51:50.465Z,82.7
2017-07-08T06:52:49.917Z,83
2017-07-08T06:53:49.239Z,82.5
2017-07-08T06:54:48.815Z,82.7
2017-07-08T06:55:48.128Z,82.7
2017-07-08T06:56:47.323Z,83
2017-07-08T06:57:46.981Z,83
2017-07-08T06:58:46.569Z,83.1
2017-07-08T06:59:45.780Z,83.1
2017-07-08T07:00:45.362Z,82.7
2017-07-08T07:01:44.566Z,82.7
2017-07-08T07:02:44.125Z,82.8
2017-07-08T07:03:43.693Z,82.8
2017-07-08T07:04:42.576Z,82.8
2017-07-08T07:05:42.265Z,82.8
2017-07-08T07:06:41.968Z,82.1
2017-07-08T07:07:40.901Z,81.7
2017-07-08T07:08:40.600Z,82
2017-07-08T07:09:39.793Z,82.4
2017-07-08T07:10:39.479Z,82.3
2017-07-08T07:11:39.576Z,82.5
2017-07-08T07:12:38.014Z,82.5
2017-07-08T07:13:37.575Z,82.7
2017-07-08T07:14:36.899Z,82.2
2017-07-08T07:15:36.598Z,82.1
2017-07-08T07:16:36.038Z,82.3
2017-07-08T07:17:35.139Z,82.5
2017-07-08T07:18:34.596Z,82.3
2017-07-08T07:19:34.183Z,82.4
2017-07-08T07:20:33.389Z,82
2017-07-08T07:21:32.705Z,82.3
2017-07-08T07:22:32.272Z,82.5
2017-07-08T07:23:31.587Z,82.4
2017-07-08T07:24:30.907Z,82.1
2017-07-08T07:25:30.364Z,81.7
2017-07-08T07:26:29.946Z,81.2
2017-07-08T07:27:29.517Z,81
2017-07-08T07:28:28.666Z,80.5
2017-07-08T07:29:27.997Z,80.1
2017-07-08T07:30:27.630Z,80.3
2017-07-08T07:31:26.964Z,80.2
2017-07-08T07:32:26.170Z,79.8
2017-07-08T07:33:25.736Z,79.7
2017-07-08T07:34:25.344Z,79.5
2017-07-08T07:35:24.659Z,79.8
2017-07-08T07:36:24.233Z,79.8
2017-07-08T07:37:23.300Z,79.6
2017-07-08T07:38:22.994Z,79.8
2017-07-08T07:38:53.371Z,79.8
2017-07-08T07:39:23.999Z,79.4
2017-07-08T07:39:54.633Z,79.4
2017-07-08T07:40:25.143Z,79.6
2017-07-08T07:40:55.905Z,79.6
2017-07-08T07:41:26.285Z,79.5
2017-07-08T07:41:56.546Z,79.5
2017-07-08T07:44:19.616Z,79.6
2017-07-08T07:46:18.136Z,79.3
2017-07-08T07:47:17.838Z,79.2
2017-07-08T07:48:17.029Z,79.5
2017-07-08T07:49:16.608Z,79.5
2017-07-08T07:50:16.060Z,79.6
2017-07-08T07:51:15.241Z,79.8
2017-07-08T07:52:15.061Z,79.9
2017-07-08T07:52:45.702Z,79.9
2017-07-08T07:53:16.208Z,79.8
2017-07-08T07:53:46.838Z,79.8
2017-07-08T07:54:17.227Z,78.4
2017-07-08T07:55:12.901Z,78.5
2017-07-08T07:56:12.529Z,78.2
2017-07-08T07:57:11.767Z,78.1
2017-07-08T07:58:11.092Z,77.9
2017-07-08T07:59:10.790Z,77.7
2017-07-08T07:59:41.429Z,77.7
2017-07-08T08:00:11.677Z,77.9
2017-07-08T08:01:09.612Z,77.9
2017-07-08T08:02:09.004Z,77.3
2017-07-08T08:03:08.211Z,77.3
2017-07-08T08:04:07.906Z,77.1
2017-07-08T08:05:07.482Z,77.1
2017-07-08T08:06:06.486Z,76.8
2017-07-08T08:07:05.984Z,75.8
2017-07-08T08:08:05.429Z,75.8
2017-07-08T08:09:04.783Z,76
2017-07-08T08:10:04.457Z,76.2
2017-07-08T08:10:34.831Z,76.2
2017-07-08T08:11:05.150Z,76
2017-07-08T08:11:35.170Z,76
2017-07-08T08:12:05.673Z,76
2017-07-08T08:12:35.810Z,76
2017-07-08T08:14:02.311Z,76
2017-07-08T08:16:01.007Z,76.4
2017-07-08T08:17:00.373Z,76.6
2017-07-08T08:17:59.885Z,76.5
2017-07-08T08:18:59.012Z,76.3
2017-07-08T08:19:58.458Z,76.4
2017-07-08T08:20:57.904Z,76.6
2017-07-08T08:21:57.593Z,76.3
2017-07-08T08:22:56.773Z,76.5
2017-07-08T08:23:56.208Z,76.8
2017-07-08T08:24:55.899Z,75.9
2017-07-08T08:25:55.347Z,76.3
2017-07-08T08:26:54.671Z,76.5
2017-07-08T08:27:54.241Z,76.2
2017-07-08T08:28:53.318Z,76
2017-07-08T08:29:53.154Z,76.3
2017-07-08T08:30:52.609Z,76.5
2017-07-08T08:31:51.938Z,75.9
2017-07-08T08:32:51.129Z,75.5
2017-07-08T08:33:50.964Z,75.7
2017-07-08T08:34:50.289Z,75.4
2017-07-08T08:35:49.607Z,75.4
2017-07-08T08:36:48.923Z,74.9
2017-07-08T08:37:48.375Z,75.1
2017-07-08T08:38:47.579Z,75.3
2017-07-08T08:39:47.020Z,74.9
2017-07-08T08:40:46.728Z,74.8
2017-07-08T08:41:46.193Z,74.9
2017-07-08T08:42:45.773Z,75
2017-07-08T08:43:45.090Z,74.9
2017-07-08T08:44:44.679Z,74.8
2017-07-08T08:45:43.751Z,75.1
2017-07-08T08:46:43.310Z,75.6
2017-07-08T08:47:42.757Z,75.5
2017-07-08T08:48:42.209Z,74.8
2017-07-08T08:49:41.764Z,74.4
2017-07-08T08:50:41.198Z,74.1
2017-07-08T08:51:40.385Z,74.2
2017-07-08T08:52:39.830Z,73.6
2017-07-08T08:53:39.285Z,73.8
2017-07-08T08:54:38.727Z,74.3
2017-07-08T08:55:38.298Z,74.1
2017-07-08T08:56:37.875Z,74
2017-07-08T08:57:37.078Z,72.9
2017-07-08T08:58:36.583Z,73.3
2017-07-08T08:59:36.146Z,72.6
2017-07-08T09:00:35.474Z,73
2017-07-08T09:01:35.174Z,73.3
2017-07-08T09:02:34.499Z,73.2
2017-07-08T09:04:33.223Z,73.2
2017-07-08T09:05:33.043Z,72.9
2017-07-08T09:06:32.370Z,73.1
2017-07-08T09:07:31.444Z,72.3
2017-07-08T09:08:31.142Z,72.4
2017-07-08T09:09:01.408Z,72.4
2017-07-08T09:09:31.776Z,72.7
2017-07-08T09:10:29.980Z,72.8
2017-07-08T09:11:29.556Z,73.1
2017-07-08T09:12:28.743Z,72.5
2017-07-08T09:13:28.058Z,72.5
2017-07-08T09:14:27.887Z,72
2017-07-08T09:15:27.206Z,71.8
2017-07-08T09:16:26.545Z,72.1
2017-07-08T09:17:25.870Z,72.3
2017-07-08T09:18:25.825Z,72.5
2017-07-08T09:19:24.767Z,72.4
2017-07-08T09:20:24.595Z,72.3
2017-07-08T09:21:23.791Z,72.2
2017-07-08T09:22:23.355Z,72.2
2017-07-08T09:23:22.676Z,72.3
2017-07-08T09:24:22.367Z,71.6
2017-07-08T09:25:21.557Z,71.8
2017-07-08T09:26:20.882Z,72.3
2017-07-08T09:27:20.328Z,72.3
2017-07-08T09:28:20.279Z,72.4
2017-07-08T09:29:19.597Z,72.4
2017-07-08T09:30:18.926Z,72.2
2017-07-08T09:31:18.247Z,72.6
2017-07-08T09:32:17.698Z,71.7
2017-07-08T09:34:16.849Z,71.7
2017-07-08T09:35:16.041Z,71.5
2017-07-08T09:36:15.369Z,70.9
2017-07-08T09:37:15.056Z,71.1
2017-07-08T09:38:14.243Z,71.3
2017-07-08T09:39:13.818Z,71.2
2017-07-08T09:40:13.512Z,71.2
2017-07-08T09:41:12.705Z,71.2
2017-07-08T09:42:12.197Z,71.2
2017-07-08T09:43:11.505Z,71.9
2017-07-08T09:44:11.458Z,71.4
2017-07-08T09:45:10.900Z,71.7
2017-07-08T09:46:10.349Z,71.3
2017-07-08T09:47:09.425Z,71.2
2017-07-08T09:48:09.158Z,71.1
2017-07-08T09:49:08.730Z,70.7
2017-07-08T09:50:07.922Z,69.9
2017-07-08T09:51:07.121Z,69.3
2017-07-08T09:52:07.070Z,69.5
2017-07-08T09:53:06.394Z,69.9
2017-07-08T09:54:05.709Z,69.3
2017-07-08T09:55:05.286Z,69.1
2017-07-08T09:56:04.467Z,69.3
2017-07-08T09:57:04.038Z,69.1
2017-07-08T09:58:03.614Z,70
2017-07-08T09:59:03.055Z,69.4
2017-07-08T10:00:02.457Z,69.1
2017-07-08T10:01:01.885Z,68.8
2017-07-08T10:01:32.625Z,68.8
2017-07-08T10:02:03.175Z,68.6
2017-07-08T10:02:33.923Z,68.6
2017-07-08T10:03:04.430Z,68.3
2017-07-08T10:03:34.925Z,68.3
2017-07-08T10:04:59.663Z,68.4
2017-07-08T10:05:59.367Z,68.9
2017-07-08T10:06:58.557Z,69.1
2017-07-08T10:07:58.395Z,69.3
2017-07-08T10:08:57.473Z,69.5
2017-07-08T10:09:57.174Z,69.4
2017-07-08T10:10:56.499Z,69.6
2017-07-08T10:11:55.957Z,69.8
2017-07-08T10:12:55.538Z,70.2
2017-07-08T10:13:55.039Z,70.5
2017-07-08T10:14:25.303Z,70.5
2017-07-08T10:14:55.951Z,70.2
2017-07-08T10:15:54.020Z,70
2017-07-08T10:16:53.483Z,70.2
2017-07-08T10:18:52.328Z,70.4
2017-07-08T10:19:51.851Z,70.9
2017-07-08T10:21:50.706Z,71
2017-07-08T10:22:50.230Z,71.7
2017-07-08T10:23:49.561Z,72.9
2017-07-08T10:24:49.003Z,76.3
2017-07-08T10:25:48.178Z,78.7
2017-07-08T10:26:47.867Z,80
2017-07-08T10:27:47.322Z,83.1
2017-07-08T10:28:47.015Z,84.7
2017-07-08T10:29:46.220Z,86
2017-07-08T10:30:45.422Z,86.7
2017-07-08T10:31:45.257Z,87.7
2017-07-08T10:32:44.702Z,88.7
2017-07-08T10:33:43.779Z,89.3
2017-07-08T10:35:42.751Z,90.1
2017-07-08T10:36:42.447Z,90.2
2017-07-08T10:37:41.896Z,90.8
2017-07-08T10:38:40.960Z,90.9
2017-07-08T10:39:40.659Z,92
2017-07-08T10:40:39.843Z,90.9
2017-07-08T10:41:39.400Z,92.2
2017-07-08T10:42:38.830Z,92.5
2017-07-08T10:43:38.404Z,92.4
2017-07-08T10:44:37.730Z,92.7
2017-07-08T10:45:37.171Z,93
2017-07-08T10:47:35.758Z,93.6
2017-07-08T10:48:35.457Z,93.1
2017-07-08T10:49:34.778Z,93.6
2017-07-08T10:50:34.357Z,94.2
2017-07-08T10:51:33.438Z,93.5
2017-07-08T10:52:33.132Z,94.5
2017-07-08T10:53:32.458Z,94.4
2017-07-08T10:54:31.915Z,94.6
2017-07-08T10:55:31.481Z,95.1
2017-07-08T10:56:30.930Z,95.3
2017-07-08T10:57:30.368Z,94
2017-07-08T10:58:29.570Z,94.3
2017-07-08T10:59:29.011Z,93
2017-07-08T11:00:28.354Z,93.4
2017-07-08T11:01:27.921Z,92.7
2017-07-08T11:02:27.498Z,88.9
2017-07-08T11:03:26.316Z,89.4
2017-07-08T11:04:25.758Z,88
2017-07-08T11:05:25.575Z,86.3
2017-07-08T11:06:24.884Z,88.1
2017-07-08T11:07:23.946Z,87.9
2017-07-08T11:08:23.770Z,88.8
2017-07-08T11:09:22.964Z,85.9
2017-07-08T11:10:22.642Z,88.5
2017-07-08T11:11:21.958Z,89.1
2017-07-08T11:12:21.526Z,87.5
2017-07-08T11:13:20.592Z,88.9
2017-07-08T11:13:50.978Z,88.9
2017-07-08T11:14:21.366Z,88.7
2017-07-08T11:15:19.367Z,88.1
2017-07-08T11:16:19.060Z,88
2017-07-08T11:17:18.269Z,88.2
2017-07-08T11:18:17.963Z,86
2017-07-08T11:19:17.286Z,84.3
2017-07-08T11:20:16.601Z,86
2017-07-08T11:21:16.168Z,85
2017-07-08T11:22:15.572Z,86.1
2017-07-08T11:23:14.895Z,85.6
2017-07-08T11:24:14.330Z,84.7
2017-07-08T11:24:44.578Z,84.7
2017-07-08T11:26:13.080Z,83.5
2017-07-08T11:27:12.658Z,82.7
2017-07-08T11:28:11.970Z,82.3
2017-07-08T11:29:11.668Z,81.3
2017-07-08T11:30:10.881Z,79.3
2017-07-08T11:31:10.335Z,78.1
2017-07-08T11:32:10.038Z,77.2
2017-07-08T11:33:09.239Z,79
2017-07-08T11:34:08.931Z,77.7
2017-07-08T11:35:07.872Z,77.4
2017-07-08T11:36:07.689Z,78.6
2017-07-08T11:37:07.014Z,78.7
2017-07-08T11:38:06.713Z,76
2017-07-08T11:39:05.772Z,77.5
2017-07-08T11:40:05.583Z,76.7
2017-07-08T11:41:04.647Z,74.4
2017-07-08T11:42:04.231Z,74.9
2017-07-08T11:43:03.548Z,76.6
2017-07-08T11:44:03.107Z,76.5
2017-07-08T11:45:02.301Z,78
2017-07-08T11:46:01.929Z,75.5
2017-07-08T11:47:01.631Z,72.9
2017-07-08T11:48:00.697Z,75.6
2017-07-08T11:49:00.403Z,74.4
2017-07-08T11:49:59.990Z,73.3
2017-07-08T11:50:59.253Z,73.3
2017-07-08T11:51:58.443Z,72.3
2017-07-08T11:52:58.299Z,72.2
2017-07-08T11:53:57.363Z,72.5
2017-07-08T11:54:57.190Z,72
2017-07-08T11:55:56.509Z,73.3
2017-07-08T11:56:55.968Z,75.1
2017-07-08T11:57:55.675Z,73.6
2017-07-08T11:58:54.634Z,73.6
2017-07-08T11:59:54.220Z,71.8
2017-07-08T12:00:53.721Z,71.5
2017-07-08T12:01:53.046Z,73.1
2017-07-08T12:02:52.738Z,73
2017-07-08T12:03:52.053Z,73
2017-07-08T12:04:51.244Z,73.1
2017-07-08T12:05:51.202Z,72.2
2017-07-08T12:06:50.390Z,72.5
2017-07-08T12:07:50.085Z,71.6
2017-07-08T12:09:48.918Z,71.4
2017-07-08T12:10:48.255Z,70.3
2017-07-08T12:11:47.716Z,70.7
2017-07-08T12:12:47.277Z,70.2
2017-07-08T12:13:46.603Z,71
2017-07-08T12:14:46.055Z,71.1
2017-07-08T12:16:45.011Z,68.6
2017-07-08T12:17:44.468Z,67.8
2017-07-08T12:18:44.062Z,68
2017-07-08T12:19:43.373Z,67.7
2017-07-08T12:20:43.082Z,67.9
2017-07-08T12:21:42.282Z,67.9
2017-07-08T12:22:41.854Z,67.8
2017-07-08T12:23:41.179Z,67.2
2017-07-08T12:24:40.632Z,66.1
2017-07-08T12:25:40.326Z,64.5
2017-07-08T12:26:39.774Z,64.8
2017-07-08T12:27:39.085Z,65.9
2017-07-08T12:28:38.526Z,66.6
2017-07-08T12:29:38.111Z,67.1
2017-07-08T12:30:37.807Z,66.3
2017-07-08T12:31:36.878Z,66.9
2017-07-08T12:32:36.193Z,66.6
2017-07-08T12:33:36.009Z,64.8
2017-07-08T12:34:35.447Z,64.1
2017-07-08T12:35:35.161Z,64.5
2017-07-08T12:36:34.614Z,65.1
2017-07-08T12:37:33.677Z,65.4
2017-07-08T12:38:33.255Z,67
2017-07-08T12:39:32.940Z,64.7
2017-07-08T12:40:32.288Z,63.1
2017-07-08T12:41:31.607Z,64.3
2017-07-08T12:42:02.302Z,64.3
2017-07-08T12:43:30.811Z,62.4
2017-07-08T12:45:29.780Z,61.6
2017-07-08T12:46:29.100Z,61.9
2017-07-08T12:47:28.845Z,63.2
2017-07-08T12:48:28.175Z,60.6
2017-07-08T12:49:27.873Z,60.4
2017-07-08T12:50:26.889Z,61.2
2017-07-08T12:51:26.860Z,61
2017-07-08T12:52:26.227Z,61.4
2017-07-08T12:53:25.757Z,62.7
2017-07-08T12:53:56.000Z,62.7
2017-07-08T12:54:26.768Z,63.8
2017-07-08T12:55:24.459Z,62.3
2017-07-08T12:57:23.410Z,63.6
2017-07-08T12:58:23.221Z,63.1
2017-07-08T12:59:22.545Z,61.9
2017-07-08T13:00:22.247Z,61
2017-07-08T13:01:21.686Z,61.9
2017-07-08T13:02:20.940Z,63.6
2017-07-08T13:03:20.510Z,64
2017-07-08T13:04:20.084Z,63.2
2017-07-08T13:05:19.659Z,62.9
2017-07-08T13:06:19.107Z,62.8
2017-07-08T13:07:18.303Z,64.2
2017-07-08T13:08:17.992Z,64.9
2017-07-08T13:09:17.322Z,65.9
2017-07-08T13:10:17.154Z,65.8
2017-07-08T13:11:16.478Z,66.2
2017-07-08T13:12:16.052Z,66.8
2017-07-08T13:13:15.631Z,66.7